sensor_id;sensor_type;location;lat;lon;timestamp;P1;durP1;ratioP1;P2;durP2;ratioP2
79646;SDS011;69119;41.718;21.786;2023-10-09T00:00:33;15.65;;;5.03;;
79646;SDS011;69119;41.718;21.786;2023-10-09T00:03:05;17.40;;;5.63;;
79646;SDS011;69119;41.718;21.786;2023-10-09T00:05:34;17.25;;;5.50;;
79646;SDS011;69119;41.718;21.786;2023-10-09T00:08:10;22.00;;;5.43;;
79646;SDS011;69119;41.718;21.786;2023-10-09T00:10:41;14.27;;;4.85;;
79646;SDS011;69119;41.718;21.786;2023-10-09T00:13:25;18.50;;;5.57;;
79646;SDS011;69119;41.718;21.786;2023-10-09T00:15:59;20.17;;;6.80;;
79646;SDS011;69119;41.718;21.786;2023-10-09T00:18:33;16.98;;;5.57;;
79646;SDS011;69119;41.718;21.786;2023-10-09T00:21:00;20.35;;;5.90;;
79646;SDS011;69119;41.718;21.786;2023-10-09T00:23:28;17.98;;;5.03;;
79646;SDS011;69119;41.718;21.786;2023-10-09T00:25:57;12.85;;;4.65;;
79646;SDS011;69119;41.718;21.786;2023-10-09T00:29:01;15.45;;;5.20;;
79646;SDS011;69119;41.718;21.786;2023-10-09T00:31:31;19.92;;;5.88;;
79646;SDS011;69119;41.718;21.786;2023-10-09T00:34:01;14.88;;;4.97;;
79646;SDS011;69119;41.718;21.786;2023-10-09T00:36:30;16.90;;;5.28;;
79646;SDS011;69119;41.718;21.786;2023-10-09T00:38:57;15.52;;;5.43;;
79646;SDS011;69119;41.718;21.786;2023-10-09T00:41:36;13.85;;;4.75;;
79646;SDS011;69119;41.718;21.786;2023-10-09T00:44:02;18.30;;;5.50;;
79646;SDS011;69119;41.718;21.786;2023-10-09T00:46:32;18.83;;;5.63;;
79646;SDS011;69119;41.718;21.786;2023-10-09T00:49:00;18.02;;;5.25;;
79646;SDS011;69119;41.718;21.786;2023-10-09T00:51:28;19.10;;;5.45;;
79646;SDS011;69119;41.718;21.786;2023-10-09T00:54:00;17.13;;;5.22;;
79646;SDS011;69119;41.718;21.786;2023-10-09T00:56:32;13.88;;;5.05;;
79646;SDS011;69119;41.718;21.786;2023-10-09T00:59:08;16.92;;;5.13;;
79646;SDS011;69119;41.718;21.786;2023-10-09T01:01:39;17.30;;;5.72;;
79646;SDS011;69119;41.718;21.786;2023-10-09T01:04:09;13.80;;;5.32;;
79646;SDS011;69119;41.718;21.786;2023-10-09T01:06:40;16.08;;;4.05;;
79646;SDS011;69119;41.718;21.786;2023-10-09T01:09:15;15.25;;;5.57;;
79646;SDS011;69119;41.718;21.786;2023-10-09T01:11:48;10.93;;;4.57;;
79646;SDS011;69119;41.718;21.786;2023-10-09T01:17:26;14.55;;;5.78;;
79646;SDS011;69119;41.718;21.786;2023-10-09T01:20:00;15.95;;;4.35;;
79646;SDS011;69119;41.718;21.786;2023-10-09T01:22:29;10.90;;;3.35;;
79646;SDS011;69119;41.718;21.786;2023-10-09T01:24:55;10.02;;;3.70;;
79646;SDS011;69119;41.718;21.786;2023-10-09T01:27:21;13.48;;;3.67;;
79646;SDS011;69119;41.718;21.786;2023-10-09T01:29:50;11.45;;;3.15;;
79646;SDS011;69119;41.718;21.786;2023-10-09T01:32:17;10.95;;;3.30;;
79646;SDS011;69119;41.718;21.786;2023-10-09T01:34:44;11.18;;;2.95;;
79646;SDS011;69119;41.718;21.786;2023-10-09T01:37:18;13.85;;;2.75;;
79646;SDS011;69119;41.718;21.786;2023-10-09T01:39:50;15.02;;;3.55;;
79646;SDS011;69119;41.718;21.786;2023-10-09T01:42:19;14.85;;;3.35;;
79646;SDS011;69119;41.718;21.786;2023-10-09T01:44:55;12.43;;;3.53;;
79646;SDS011;69119;41.718;21.786;2023-10-09T01:47:23;8.63;;;3.03;;
79646;SDS011;69119;41.718;21.786;2023-10-09T01:49:51;9.20;;;2.72;;
79646;SDS011;69119;41.718;21.786;2023-10-09T01:52:23;10.63;;;2.70;;
79646;SDS011;69119;41.718;21.786;2023-10-09T01:54:50;9.68;;;2.42;;
79646;SDS011;69119;41.718;21.786;2023-10-09T01:57:18;7.65;;;2.45;;
79646;SDS011;69119;41.718;21.786;2023-10-09T01:59:48;11.18;;;2.17;;
79646;SDS011;69119;41.718;21.786;2023-10-09T02:02:20;5.93;;;1.90;;
79646;SDS011;69119;41.718;21.786;2023-10-09T02:07:13;6.88;;;2.50;;
79646;SDS011;69119;41.718;21.786;2023-10-09T02:09:39;9.52;;;2.05;;
79646;SDS011;69119;41.718;21.786;2023-10-09T02:12:11;9.73;;;2.20;;
79646;SDS011;69119;41.718;21.786;2023-10-09T02:14:37;12.02;;;2.53;;
79646;SDS011;69119;41.718;21.786;2023-10-09T02:17:07;8.18;;;2.08;;
79646;SDS011;69119;41.718;21.786;2023-10-09T02:19:45;7.30;;;2.00;;
79646;SDS011;69119;41.718;21.786;2023-10-09T02:22:14;9.55;;;2.15;;
79646;SDS011;69119;41.718;21.786;2023-10-09T02:24:42;7.72;;;1.83;;
79646;SDS011;69119;41.718;21.786;2023-10-09T02:27:18;6.15;;;1.77;;
79646;SDS011;69119;41.718;21.786;2023-10-09T02:30:03;6.07;;;1.98;;
79646;SDS011;69119;41.718;21.786;2023-10-09T02:32:45;10.55;;;1.83;;
79646;SDS011;69119;41.718;21.786;2023-10-09T02:37:53;6.10;;;2.15;;
79646;SDS011;69119;41.718;21.786;2023-10-09T02:40:19;7.78;;;2.30;;
79646;SDS011;69119;41.718;21.786;2023-10-09T02:42:52;6.90;;;2.08;;
79646;SDS011;69119;41.718;21.786;2023-10-09T02:45:18;6.45;;;1.92;;
79646;SDS011;69119;41.718;21.786;2023-10-09T02:47:45;8.02;;;2.25;;
79646;SDS011;69119;41.718;21.786;2023-10-09T02:50:14;7.13;;;1.90;;
79646;SDS011;69119;41.718;21.786;2023-10-09T02:52:46;9.07;;;3.00;;
79646;SDS011;69119;41.718;21.786;2023-10-09T02:55:13;6.90;;;2.13;;
79646;SDS011;69119;41.718;21.786;2023-10-09T02:57:48;6.88;;;2.10;;
79646;SDS011;69119;41.718;21.786;2023-10-09T03:00:20;7.85;;;1.83;;
79646;SDS011;69119;41.718;21.786;2023-10-09T03:02:54;7.18;;;2.38;;
79646;SDS011;69119;41.718;21.786;2023-10-09T03:05:23;8.35;;;2.28;;
79646;SDS011;69119;41.718;21.786;2023-10-09T03:07:52;6.78;;;2.38;;
79646;SDS011;69119;41.718;21.786;2023-10-09T03:10:18;7.63;;;2.30;;
79646;SDS011;69119;41.718;21.786;2023-10-09T03:12:44;6.80;;;2.13;;
79646;SDS011;69119;41.718;21.786;2023-10-09T03:15:10;8.55;;;2.50;;
79646;SDS011;69119;41.718;21.786;2023-10-09T03:17:37;6.97;;;2.20;;
79646;SDS011;69119;41.718;21.786;2023-10-09T03:20:04;10.25;;;2.60;;
79646;SDS011;69119;41.718;21.786;2023-10-09T03:22:37;8.80;;;2.42;;
79646;SDS011;69119;41.718;21.786;2023-10-09T03:25:04;8.07;;;2.35;;
79646;SDS011;69119;41.718;21.786;2023-10-09T03:27:37;7.53;;;2.42;;
79646;SDS011;69119;41.718;21.786;2023-10-09T03:30:04;10.50;;;2.90;;
79646;SDS011;69119;41.718;21.786;2023-10-09T03:32:30;9.15;;;2.80;;
79646;SDS011;69119;41.718;21.786;2023-10-09T03:34:56;8.85;;;3.17;;
79646;SDS011;69119;41.718;21.786;2023-10-09T03:37:24;8.98;;;2.72;;
79646;SDS011;69119;41.718;21.786;2023-10-09T03:40:09;10.43;;;3.28;;
79646;SDS011;69119;41.718;21.786;2023-10-09T03:42:42;10.73;;;3.28;;
79646;SDS011;69119;41.718;21.786;2023-10-09T03:45:08;9.20;;;2.65;;
79646;SDS011;69119;41.718;21.786;2023-10-09T03:47:37;8.63;;;3.10;;
79646;SDS011;69119;41.718;21.786;2023-10-09T03:50:08;10.02;;;4.13;;
79646;SDS011;69119;41.718;21.786;2023-10-09T03:52:48;6.82;;;2.42;;
79646;SDS011;69119;41.718;21.786;2023-10-09T03:57:41;11.73;;;3.20;;
79646;SDS011;69119;41.718;21.786;2023-10-09T04:00:10;9.38;;;3.40;;
79646;SDS011;69119;41.718;21.786;2023-10-09T04:02:41;9.65;;;3.75;;
79646;SDS011;69119;41.718;21.786;2023-10-09T04:05:07;7.50;;;2.65;;
79646;SDS011;69119;41.718;21.786;2023-10-09T04:10:00;7.43;;;2.92;;
79646;SDS011;69119;41.718;21.786;2023-10-09T04:12:49;9.63;;;2.95;;
79646;SDS011;69119;41.718;21.786;2023-10-09T04:15:18;8.80;;;3.03;;
79646;SDS011;69119;41.718;21.786;2023-10-09T04:17:48;10.65;;;3.85;;
79646;SDS011;69119;41.718;21.786;2023-10-09T04:20:16;9.20;;;3.15;;
79646;SDS011;69119;41.718;21.786;2023-10-09T04:25:35;8.82;;;3.20;;
79646;SDS011;69119;41.718;21.786;2023-10-09T04:28:08;9.85;;;3.63;;
79646;SDS011;69119;41.718;21.786;2023-10-09T04:30:44;9.63;;;3.88;;
79646;SDS011;69119;41.718;21.786;2023-10-09T04:33:20;9.90;;;4.03;;
79646;SDS011;69119;41.718;21.786;2023-10-09T04:35:54;8.38;;;3.38;;
79646;SDS011;69119;41.718;21.786;2023-10-09T04:38:39;9.43;;;3.22;;
79646;SDS011;69119;41.718;21.786;2023-10-09T04:41:18;7.10;;;3.40;;
79646;SDS011;69119;41.718;21.786;2023-10-09T04:43:52;9.68;;;3.53;;
79646;SDS011;69119;41.718;21.786;2023-10-09T04:46:29;7.88;;;2.78;;
79646;SDS011;69119;41.718;21.786;2023-10-09T04:49:08;22.10;;;8.13;;
79646;SDS011;69119;41.718;21.786;2023-10-09T04:51:52;10.88;;;5.15;;
79646;SDS011;69119;41.718;21.786;2023-10-09T04:54:31;12.55;;;6.18;;
79646;SDS011;69119;41.718;21.786;2023-10-09T04:57:26;12.68;;;6.80;;
79646;SDS011;69119;41.718;21.786;2023-10-09T04:59:52;11.55;;;6.80;;
79646;SDS011;69119;41.718;21.786;2023-10-09T05:02:23;8.30;;;4.93;;
79646;SDS011;69119;41.718;21.786;2023-10-09T05:07:38;7.25;;;3.95;;
79646;SDS011;69119;41.718;21.786;2023-10-09T05:10:30;9.82;;;4.72;;
79646;SDS011;69119;41.718;21.786;2023-10-09T05:12:57;8.18;;;4.38;;
79646;SDS011;69119;41.718;21.786;2023-10-09T05:17:54;9.75;;;4.47;;
79646;SDS011;69119;41.718;21.786;2023-10-09T05:20:34;10.60;;;5.22;;
79646;SDS011;69119;41.718;21.786;2023-10-09T05:23:18;10.50;;;4.60;;
79646;SDS011;69119;41.718;21.786;2023-10-09T05:25:51;10.45;;;5.07;;
79646;SDS011;69119;41.718;21.786;2023-10-09T05:28:23;8.65;;;5.22;;
79646;SDS011;69119;41.718;21.786;2023-10-09T05:31:14;8.68;;;5.10;;
79646;SDS011;69119;41.718;21.786;2023-10-09T05:34:18;10.60;;;6.30;;
79646;SDS011;69119;41.718;21.786;2023-10-09T05:36:46;11.70;;;5.85;;
79646;SDS011;69119;41.718;21.786;2023-10-09T05:42:06;11.40;;;4.85;;
79646;SDS011;69119;41.718;21.786;2023-10-09T05:44:42;8.68;;;5.88;;
79646;SDS011;69119;41.718;21.786;2023-10-09T05:47:40;9.73;;;4.40;;
79646;SDS011;69119;41.718;21.786;2023-10-09T05:50:21;11.18;;;5.63;;
79646;SDS011;69119;41.718;21.786;2023-10-09T05:52:47;9.35;;;5.60;;
79646;SDS011;69119;41.718;21.786;2023-10-09T05:55:16;10.10;;;6.43;;
79646;SDS011;69119;41.718;21.786;2023-10-09T05:57:49;9.18;;;5.97;;
79646;SDS011;69119;41.718;21.786;2023-10-09T06:00:29;12.30;;;6.38;;
79646;SDS011;69119;41.718;21.786;2023-10-09T06:03:14;12.68;;;6.30;;
79646;SDS011;69119;41.718;21.786;2023-10-09T06:05:49;14.32;;;10.50;;
79646;SDS011;69119;41.718;21.786;2023-10-09T06:11:03;9.27;;;6.90;;
79646;SDS011;69119;41.718;21.786;2023-10-09T06:13:48;9.73;;;6.28;;
79646;SDS011;69119;41.718;21.786;2023-10-09T06:19:24;11.85;;;6.03;;
79646;SDS011;69119;41.718;21.786;2023-10-09T06:21:54;14.30;;;6.43;;
79646;SDS011;69119;41.718;21.786;2023-10-09T06:24:40;11.48;;;6.32;;
79646;SDS011;69119;41.718;21.786;2023-10-09T06:27:18;11.38;;;6.43;;
79646;SDS011;69119;41.718;21.786;2023-10-09T06:30:11;10.68;;;5.85;;
79646;SDS011;69119;41.718;21.786;2023-10-09T06:32:49;13.02;;;4.68;;
79646;SDS011;69119;41.718;21.786;2023-10-09T06:35:27;12.75;;;5.68;;
79646;SDS011;69119;41.718;21.786;2023-10-09T06:37:58;12.18;;;5.38;;
79646;SDS011;69119;41.718;21.786;2023-10-09T06:43:05;10.15;;;5.30;;
79646;SDS011;69119;41.718;21.786;2023-10-09T06:48:09;10.52;;;4.78;;
79646;SDS011;69119;41.718;21.786;2023-10-09T06:50:55;9.15;;;4.25;;
79646;SDS011;69119;41.718;21.786;2023-10-09T06:53:28;10.73;;;4.57;;
79646;SDS011;69119;41.718;21.786;2023-10-09T06:56:14;11.90;;;5.65;;
79646;SDS011;69119;41.718;21.786;2023-10-09T06:58:56;10.20;;;4.97;;
79646;SDS011;69119;41.718;21.786;2023-10-09T07:01:29;9.77;;;5.15;;
79646;SDS011;69119;41.718;21.786;2023-10-09T07:04:08;10.43;;;4.97;;
79646;SDS011;69119;41.718;21.786;2023-10-09T07:06:45;9.88;;;4.45;;
79646;SDS011;69119;41.718;21.786;2023-10-09T07:09:12;11.05;;;4.45;;
79646;SDS011;69119;41.718;21.786;2023-10-09T07:16:33;14.00;;;5.45;;
79646;SDS011;69119;41.718;21.786;2023-10-09T07:19:22;8.55;;;3.72;;
79646;SDS011;69119;41.718;21.786;2023-10-09T07:22:07;9.75;;;4.90;;
79646;SDS011;69119;41.718;21.786;2023-10-09T07:24:45;8.77;;;4.28;;
79646;SDS011;69119;41.718;21.786;2023-10-09T07:27:21;7.18;;;3.88;;
79646;SDS011;69119;41.718;21.786;2023-10-09T07:30:06;7.72;;;3.80;;
79646;SDS011;69119;41.718;21.786;2023-10-09T07:38:20;8.43;;;3.47;;
79646;SDS011;69119;41.718;21.786;2023-10-09T07:40:47;9.55;;;4.25;;
79646;SDS011;69119;41.718;21.786;2023-10-09T07:43:35;8.38;;;3.95;;
79646;SDS011;69119;41.718;21.786;2023-10-09T07:46:05;7.28;;;3.47;;
79646;SDS011;69119;41.718;21.786;2023-10-09T07:48:50;8.23;;;4.38;;
79646;SDS011;69119;41.718;21.786;2023-10-09T07:51:19;9.48;;;5.07;;
79646;SDS011;69119;41.718;21.786;2023-10-09T07:53:51;12.05;;;4.68;;
79646;SDS011;69119;41.718;21.786;2023-10-09T07:56:44;8.77;;;4.35;;
79646;SDS011;69119;41.718;21.786;2023-10-09T07:59:11;11.25;;;4.63;;
79646;SDS011;69119;41.718;21.786;2023-10-09T08:01:41;11.13;;;5.63;;
79646;SDS011;69119;41.718;21.786;2023-10-09T08:04:30;7.95;;;4.13;;
79646;SDS011;69119;41.718;21.786;2023-10-09T08:07:15;7.88;;;4.53;;
79646;SDS011;69119;41.718;21.786;2023-10-09T08:10:05;6.90;;;3.70;;
79646;SDS011;69119;41.718;21.786;2023-10-09T08:12:43;8.20;;;2.80;;
79646;SDS011;69119;41.718;21.786;2023-10-09T08:15:10;6.95;;;3.78;;
79646;SDS011;69119;41.718;21.786;2023-10-09T08:17:51;9.02;;;4.43;;
79646;SDS011;69119;41.718;21.786;2023-10-09T08:20:38;10.85;;;4.43;;
79646;SDS011;69119;41.718;21.786;2023-10-09T08:23:23;9.57;;;4.03;;
79646;SDS011;69119;41.718;21.786;2023-10-09T08:26:13;7.65;;;3.95;;
79646;SDS011;69119;41.718;21.786;2023-10-09T08:28:39;8.00;;;3.42;;
79646;SDS011;69119;41.718;21.786;2023-10-09T08:31:17;8.43;;;3.65;;
79646;SDS011;69119;41.718;21.786;2023-10-09T08:34:02;10.00;;;3.63;;
79646;SDS011;69119;41.718;21.786;2023-10-09T08:36:29;9.68;;;4.15;;
79646;SDS011;69119;41.718;21.786;2023-10-09T08:39:04;8.20;;;3.72;;
79646;SDS011;69119;41.718;21.786;2023-10-09T08:41:42;9.63;;;3.58;;
79646;SDS011;69119;41.718;21.786;2023-10-09T08:44:08;11.10;;;4.60;;
79646;SDS011;69119;41.718;21.786;2023-10-09T08:46:37;9.93;;;4.45;;
79646;SDS011;69119;41.718;21.786;2023-10-09T08:49:04;11.88;;;5.63;;
79646;SDS011;69119;41.718;21.786;2023-10-09T08:51:33;11.63;;;6.35;;
79646;SDS011;69119;41.718;21.786;2023-10-09T08:54:00;8.65;;;4.63;;
79646;SDS011;69119;41.718;21.786;2023-10-09T08:56:26;7.70;;;3.40;;
79646;SDS011;69119;41.718;21.786;2023-10-09T08:58:53;9.18;;;3.55;;
79646;SDS011;69119;41.718;21.786;2023-10-09T09:01:20;8.25;;;3.53;;
79646;SDS011;69119;41.718;21.786;2023-10-09T09:03:48;8.27;;;3.83;;
79646;SDS011;69119;41.718;21.786;2023-10-09T09:06:15;9.88;;;3.83;;
79646;SDS011;69119;41.718;21.786;2023-10-09T09:08:42;8.88;;;3.70;;
79646;SDS011;69119;41.718;21.786;2023-10-09T09:13:59;17.40;;;3.95;;
79646;SDS011;69119;41.718;21.786;2023-10-09T09:16:29;9.20;;;4.28;;
79646;SDS011;69119;41.718;21.786;2023-10-09T09:18:56;6.78;;;3.75;;
79646;SDS011;69119;41.718;21.786;2023-10-09T09:21:28;11.10;;;3.78;;
79646;SDS011;69119;41.718;21.786;2023-10-09T09:23:57;9.63;;;3.47;;
79646;SDS011;69119;41.718;21.786;2023-10-09T09:26:32;8.43;;;3.70;;
79646;SDS011;69119;41.718;21.786;2023-10-09T09:29:03;7.43;;;3.47;;
79646;SDS011;69119;41.718;21.786;2023-10-09T09:31:33;7.50;;;3.33;;
79646;SDS011;69119;41.718;21.786;2023-10-09T09:34:07;6.60;;;2.47;;
79646;SDS011;69119;41.718;21.786;2023-10-09T09:36:54;5.97;;;2.80;;
79646;SDS011;69119;41.718;21.786;2023-10-09T09:39:30;10.95;;;4.00;;
79646;SDS011;69119;41.718;21.786;2023-10-09T09:41:59;7.18;;;3.78;;
79646;SDS011;69119;41.718;21.786;2023-10-09T09:44:35;6.40;;;2.58;;
79646;SDS011;69119;41.718;21.786;2023-10-09T09:47:12;5.85;;;2.08;;
79646;SDS011;69119;41.718;21.786;2023-10-09T09:49:42;4.80;;;2.03;;
79646;SDS011;69119;41.718;21.786;2023-10-09T09:52:08;7.32;;;2.33;;
79646;SDS011;69119;41.718;21.786;2023-10-09T09:54:38;6.30;;;3.17;;
79646;SDS011;69119;41.718;21.786;2023-10-09T09:57:05;6.97;;;2.00;;
79646;SDS011;69119;41.718;21.786;2023-10-09T09:59:39;6.85;;;2.47;;
79646;SDS011;69119;41.718;21.786;2023-10-09T10:02:06;5.88;;;1.90;;
79646;SDS011;69119;41.718;21.786;2023-10-09T10:04:34;6.15;;;3.00;;
79646;SDS011;69119;41.718;21.786;2023-10-09T10:07:02;5.97;;;2.80;;
79646;SDS011;69119;41.718;21.786;2023-10-09T10:09:37;7.22;;;2.95;;
79646;SDS011;69119;41.718;21.786;2023-10-09T10:12:04;8.60;;;3.22;;
79646;SDS011;69119;41.718;21.786;2023-10-09T10:15:00;7.15;;;2.30;;
79646;SDS011;69119;41.718;21.786;2023-10-09T10:20:26;7.18;;;2.80;;
79646;SDS011;69119;41.718;21.786;2023-10-09T10:25:42;8.70;;;2.53;;
79646;SDS011;69119;41.718;21.786;2023-10-09T10:28:23;8.48;;;3.72;;
79646;SDS011;69119;41.718;21.786;2023-10-09T10:31:10;8.80;;;3.40;;
79646;SDS011;69119;41.718;21.786;2023-10-09T10:36:20;6.47;;;2.45;;
79646;SDS011;69119;41.718;21.786;2023-10-09T10:39:02;6.22;;;1.95;;
79646;SDS011;69119;41.718;21.786;2023-10-09T10:41:53;8.02;;;2.30;;
79646;SDS011;69119;41.718;21.786;2023-10-09T10:44:30;6.22;;;2.67;;
79646;SDS011;69119;41.718;21.786;2023-10-09T10:47:01;6.57;;;2.28;;
79646;SDS011;69119;41.718;21.786;2023-10-09T10:49:27;6.53;;;2.08;;
79646;SDS011;69119;41.718;21.786;2023-10-09T10:52:02;8.70;;;2.78;;
79646;SDS011;69119;41.718;21.786;2023-10-09T10:54:42;5.22;;;2.15;;
79646;SDS011;69119;41.718;21.786;2023-10-09T10:57:18;7.90;;;3.03;;
79646;SDS011;69119;41.718;21.786;2023-10-09T10:59:45;5.93;;;2.58;;
79646;SDS011;69119;41.718;21.786;2023-10-09T11:02:14;5.80;;;1.80;;
79646;SDS011;69119;41.718;21.786;2023-10-09T11:04:47;7.70;;;2.80;;
79646;SDS011;69119;41.718;21.786;2023-10-09T11:07:21;5.57;;;1.92;;
79646;SDS011;69119;41.718;21.786;2023-10-09T11:09:56;5.63;;;2.22;;
79646;SDS011;69119;41.718;21.786;2023-10-09T11:12:43;6.50;;;2.13;;
79646;SDS011;69119;41.718;21.786;2023-10-09T11:15:11;7.07;;;2.83;;
79646;SDS011;69119;41.718;21.786;2023-10-09T11:17:57;6.20;;;2.33;;
79646;SDS011;69119;41.718;21.786;2023-10-09T11:20:24;5.97;;;1.88;;
79646;SDS011;69119;41.718;21.786;2023-10-09T11:22:52;8.68;;;2.28;;
79646;SDS011;69119;41.718;21.786;2023-10-09T11:25:41;5.00;;;1.70;;
79646;SDS011;69119;41.718;21.786;2023-10-09T11:28:20;6.00;;;1.95;;
79646;SDS011;69119;41.718;21.786;2023-10-09T11:31:16;7.05;;;1.70;;
79646;SDS011;69119;41.718;21.786;2023-10-09T11:36:08;7.80;;;1.95;;
79646;SDS011;69119;41.718;21.786;2023-10-09T11:38:37;7.25;;;1.92;;
79646;SDS011;69119;41.718;21.786;2023-10-09T11:41:16;6.85;;;2.35;;
79646;SDS011;69119;41.718;21.786;2023-10-09T11:43:50;6.25;;;2.53;;
79646;SDS011;69119;41.718;21.786;2023-10-09T11:46:16;6.25;;;1.48;;
79646;SDS011;69119;41.718;21.786;2023-10-09T11:49:05;6.80;;;2.97;;
79646;SDS011;69119;41.718;21.786;2023-10-09T11:51:40;5.72;;;2.60;;
79646;SDS011;69119;41.718;21.786;2023-10-09T11:54:30;4.93;;;1.45;;
79646;SDS011;69119;41.718;21.786;2023-10-09T11:56:56;6.30;;;1.35;;
79646;SDS011;69119;41.718;21.786;2023-10-09T11:59:26;8.63;;;2.95;;
79646;SDS011;69119;41.718;21.786;2023-10-09T12:01:52;5.97;;;1.25;;
79646;SDS011;69119;41.718;21.786;2023-10-09T12:04:20;6.97;;;1.58;;
79646;SDS011;69119;41.718;21.786;2023-10-09T12:06:55;6.70;;;1.45;;
79646;SDS011;69119;41.718;21.786;2023-10-09T12:09:31;7.05;;;2.40;;
79646;SDS011;69119;41.718;21.786;2023-10-09T12:12:00;6.43;;;2.45;;
79646;SDS011;69119;41.718;21.786;2023-10-09T12:14:26;5.32;;;1.23;;
79646;SDS011;69119;41.718;21.786;2023-10-09T12:16:58;6.68;;;1.75;;
79646;SDS011;69119;41.718;21.786;2023-10-09T12:21:52;5.65;;;1.50;;
79646;SDS011;69119;41.718;21.786;2023-10-09T12:24:18;5.20;;;1.65;;
79646;SDS011;69119;41.718;21.786;2023-10-09T12:26:44;5.45;;;2.03;;
79646;SDS011;69119;41.718;21.786;2023-10-09T12:29:13;5.68;;;1.75;;
79646;SDS011;69119;41.718;21.786;2023-10-09T12:34:05;5.88;;;1.60;;
79646;SDS011;69119;41.718;21.786;2023-10-09T12:39:02;6.15;;;1.90;;
79646;SDS011;69119;41.718;21.786;2023-10-09T12:41:28;5.65;;;1.60;;
79646;SDS011;69119;41.718;21.786;2023-10-09T12:43:58;5.85;;;1.40;;
79646;SDS011;69119;41.718;21.786;2023-10-09T12:46:24;7.30;;;1.60;;
79646;SDS011;69119;41.718;21.786;2023-10-09T12:48:54;7.40;;;2.25;;
79646;SDS011;69119;41.718;21.786;2023-10-09T12:51:21;8.27;;;2.75;;
79646;SDS011;69119;41.718;21.786;2023-10-09T12:53:50;8.50;;;1.95;;
79646;SDS011;69119;41.718;21.786;2023-10-09T12:56:22;8.57;;;1.58;;
79646;SDS011;69119;41.718;21.786;2023-10-09T12:58:57;5.57;;;1.95;;
79646;SDS011;69119;41.718;21.786;2023-10-09T13:01:25;6.15;;;1.42;;
79646;SDS011;69119;41.718;21.786;2023-10-09T13:03:57;6.53;;;2.67;;
79646;SDS011;69119;41.718;21.786;2023-10-09T13:06:24;7.88;;;1.83;;
79646;SDS011;69119;41.718;21.786;2023-10-09T13:08:51;5.57;;;1.40;;
79646;SDS011;69119;41.718;21.786;2023-10-09T13:13:44;7.80;;;1.95;;
79646;SDS011;69119;41.718;21.786;2023-10-09T13:18:54;6.10;;;1.67;;
79646;SDS011;69119;41.718;21.786;2023-10-09T13:21:23;5.97;;;1.33;;
79646;SDS011;69119;41.718;21.786;2023-10-09T13:23:50;7.30;;;1.85;;
79646;SDS011;69119;41.718;21.786;2023-10-09T13:26:19;7.15;;;1.95;;
79646;SDS011;69119;41.718;21.786;2023-10-09T13:28:58;6.78;;;1.92;;
79646;SDS011;69119;41.718;21.786;2023-10-09T13:31:25;7.13;;;1.80;;
79646;SDS011;69119;41.718;21.786;2023-10-09T13:33:52;10.10;;;2.28;;
79646;SDS011;69119;41.718;21.786;2023-10-09T13:36:22;6.90;;;1.33;;
79646;SDS011;69119;41.718;21.786;2023-10-09T13:39:03;7.45;;;1.75;;
79646;SDS011;69119;41.718;21.786;2023-10-09T13:41:48;9.20;;;2.20;;
79646;SDS011;69119;41.718;21.786;2023-10-09T13:44:14;8.98;;;1.77;;
79646;SDS011;69119;41.718;21.786;2023-10-09T13:46:40;6.45;;;2.10;;
79646;SDS011;69119;41.718;21.786;2023-10-09T13:49:10;5.45;;;1.40;;
79646;SDS011;69119;41.718;21.786;2023-10-09T13:54:11;8.43;;;2.22;;
79646;SDS011;69119;41.718;21.786;2023-10-09T13:56:53;6.80;;;1.63;;
79646;SDS011;69119;41.718;21.786;2023-10-09T13:59:20;6.35;;;1.73;;
79646;SDS011;69119;41.718;21.786;2023-10-09T14:01:48;8.60;;;2.03;;
79646;SDS011;69119;41.718;21.786;2023-10-09T14:04:14;7.82;;;1.85;;
79646;SDS011;69119;41.718;21.786;2023-10-09T14:06:46;7.32;;;1.77;;
79646;SDS011;69119;41.718;21.786;2023-10-09T14:09:12;6.60;;;2.03;;
79646;SDS011;69119;41.718;21.786;2023-10-09T14:11:55;7.72;;;1.70;;
79646;SDS011;69119;41.718;21.786;2023-10-09T14:14:40;6.93;;;1.95;;
79646;SDS011;69119;41.718;21.786;2023-10-09T14:17:14;5.45;;;1.48;;
79646;SDS011;69119;41.718;21.786;2023-10-09T14:19:44;5.40;;;1.80;;
79646;SDS011;69119;41.718;21.786;2023-10-09T14:24:42;7.40;;;2.08;;
79646;SDS011;69119;41.718;21.786;2023-10-09T14:27:12;7.20;;;2.60;;
79646;SDS011;69119;41.718;21.786;2023-10-09T14:29:45;10.93;;;1.98;;
79646;SDS011;69119;41.718;21.786;2023-10-09T14:32:11;7.20;;;2.13;;
79646;SDS011;69119;41.718;21.786;2023-10-09T14:34:43;6.72;;;1.98;;
79646;SDS011;69119;41.718;21.786;2023-10-09T14:37:19;6.90;;;1.60;;
79646;SDS011;69119;41.718;21.786;2023-10-09T14:39:45;8.35;;;1.80;;
79646;SDS011;69119;41.718;21.786;2023-10-09T14:42:15;9.00;;;1.88;;
79646;SDS011;69119;41.718;21.786;2023-10-09T14:44:42;10.00;;;2.33;;
79646;SDS011;69119;41.718;21.786;2023-10-09T14:47:10;8.02;;;2.38;;
79646;SDS011;69119;41.718;21.786;2023-10-09T14:49:39;7.18;;;2.13;;
79646;SDS011;69119;41.718;21.786;2023-10-09T14:52:12;8.15;;;1.88;;
79646;SDS011;69119;41.718;21.786;2023-10-09T14:54:42;10.55;;;2.53;;
79646;SDS011;69119;41.718;21.786;2023-10-09T14:57:10;8.25;;;2.50;;
79646;SDS011;69119;41.718;21.786;2023-10-09T14:59:36;7.80;;;1.98;;
79646;SDS011;69119;41.718;21.786;2023-10-09T15:02:03;16.27;;;4.35;;
79646;SDS011;69119;41.718;21.786;2023-10-09T15:04:30;8.63;;;2.67;;
79646;SDS011;69119;41.718;21.786;2023-10-09T15:07:00;7.72;;;1.58;;
79646;SDS011;69119;41.718;21.786;2023-10-09T15:09:27;9.60;;;2.38;;
79646;SDS011;69119;41.718;21.786;2023-10-09T15:11:59;10.50;;;2.30;;
79646;SDS011;69119;41.718;21.786;2023-10-09T15:14:26;10.82;;;2.97;;
79646;SDS011;69119;41.718;21.786;2023-10-09T15:19:18;5.80;;;1.75;;
79646;SDS011;69119;41.718;21.786;2023-10-09T15:21:45;11.07;;;2.83;;
79646;SDS011;69119;41.718;21.786;2023-10-09T15:24:12;26.25;;;5.75;;
79646;SDS011;69119;41.718;21.786;2023-10-09T15:26:41;31.13;;;4.82;;
79646;SDS011;69119;41.718;21.786;2023-10-09T15:29:09;22.42;;;5.10;;
79646;SDS011;69119;41.718;21.786;2023-10-09T15:31:35;18.02;;;3.88;;
79646;SDS011;69119;41.718;21.786;2023-10-09T15:34:02;19.92;;;3.90;;
79646;SDS011;69119;41.718;21.786;2023-10-09T15:36:33;26.08;;;4.22;;
79646;SDS011;69119;41.718;21.786;2023-10-09T15:39:00;14.32;;;3.20;;
79646;SDS011;69119;41.718;21.786;2023-10-09T15:43:55;14.23;;;3.58;;
79646;SDS011;69119;41.718;21.786;2023-10-09T15:46:22;11.05;;;2.40;;
79646;SDS011;69119;41.718;21.786;2023-10-09T15:48:48;11.73;;;3.72;;
79646;SDS011;69119;41.718;21.786;2023-10-09T15:51:16;13.73;;;4.28;;
79646;SDS011;69119;41.718;21.786;2023-10-09T15:56:08;11.27;;;3.83;;
79646;SDS011;69119;41.718;21.786;2023-10-09T15:58:37;8.88;;;2.92;;
79646;SDS011;69119;41.718;21.786;2023-10-09T16:01:07;11.88;;;3.72;;
79646;SDS011;69119;41.718;21.786;2023-10-09T16:03:33;16.15;;;4.45;;
79646;SDS011;69119;41.718;21.786;2023-10-09T16:05:59;16.38;;;4.75;;
79646;SDS011;69119;41.718;21.786;2023-10-09T16:08:25;19.38;;;5.03;;
79646;SDS011;69119;41.718;21.786;2023-10-09T16:10:53;11.32;;;3.95;;
79646;SDS011;69119;41.718;21.786;2023-10-09T16:13:19;13.45;;;4.60;;
79646;SDS011;69119;41.718;21.786;2023-10-09T16:15:46;14.77;;;5.18;;
79646;SDS011;69119;41.718;21.786;2023-10-09T16:18:13;16.27;;;5.35;;
79646;SDS011;69119;41.718;21.786;2023-10-09T16:20:39;15.40;;;4.95;;
79646;SDS011;69119;41.718;21.786;2023-10-09T16:23:06;14.98;;;5.07;;
79646;SDS011;69119;41.718;21.786;2023-10-09T16:25:34;12.45;;;3.75;;